Aviation Digital Data Service (ADDS)

Output produced by METARs form (1414 UTC 05 September 2015)
found at http://aviationweather.gov/adds/metars/
 
KFAY 051307Z 0513/0612 03009KT 5SM BR OVC006 
     TEMPO 0513/0516 P6SM NSW OVC011 
     FM051600 05011KT P6SM BKN030 
     TEMPO 0518/0522 VRB15G25KT 3SM SHRA BKN025